createdAt,value
2017-11-04T00:00:57.917Z,20.60
2017-11-04T00:03:26.945Z,20.17
2017-11-04T00:05:55.220Z,22.00
2017-11-04T00:08:23.470Z,21.47
2017-11-04T00:10:52.504Z,20.57
2017-11-04T00:13:20.779Z,19.43
2017-11-04T00:15:49.070Z,19.30
2017-11-04T00:18:17.321Z,19.83
2017-11-04T00:20:45.609Z,19.20
2017-11-04T00:23:13.858Z,21.10
2017-11-04T00:25:42.131Z,21.13
2017-11-04T00:28:10.488Z,21.73
2017-11-04T00:30:38.765Z,24.83
2017-11-04T00:33:07.020Z,25.00
2017-11-04T00:35:35.296Z,20.90
2017-11-04T00:38:03.609Z,23.73
2017-11-04T00:40:31.874Z,22.80
2017-11-04T00:43:00.128Z,22.63
2017-11-04T00:45:29.179Z,22.13
2017-11-04T00:47:57.427Z,20.03
2017-11-04T00:50:25.704Z,20.73
2017-11-04T00:52:54.753Z,18.47
2017-11-04T00:55:23.017Z,22.10
2017-11-04T00:57:51.611Z,21.27
2017-11-04T01:00:19.887Z,19.20
2017-11-04T01:02:48.148Z,23.20
2017-11-04T01:05:16.411Z,21.20
2017-11-04T01:07:45.426Z,20.57
2017-11-04T01:10:13.690Z,19.87
2017-11-04T01:12:42.733Z,19.07
2017-11-04T01:15:10.992Z,21.07
2017-11-04T01:17:39.250Z,21.53
2017-11-04T01:20:08.284Z,21.00
2017-11-04T01:22:36.561Z,21.20
2017-11-04T01:25:04.858Z,20.80
2017-11-04T01:27:33.148Z,21.30
2017-11-04T01:30:01.389Z,20.57
2017-11-04T01:32:29.683Z,20.90
2017-11-04T01:34:57.938Z,20.77
2017-11-04T01:37:26.972Z,22.50
2017-11-04T01:39:55.224Z,19.60
2017-11-04T01:42:23.539Z,18.63
2017-11-04T01:44:51.783Z,19.50
2017-11-04T01:47:20.824Z,20.30
2017-11-04T01:49:49.071Z,21.03
2017-11-04T01:52:17.339Z,20.00
2017-11-04T01:54:46.380Z,20.17
2017-11-04T01:57:14.643Z,20.77
2017-11-04T01:59:42.887Z,22.00
2017-11-04T02:02:11.157Z,19.80
2017-11-04T02:04:39.416Z,20.00
2017-11-04T02:07:07.699Z,19.43
2017-11-04T02:09:35.947Z,21.10
2017-11-04T02:12:04.217Z,19.90
2017-11-04T02:14:33.249Z,20.07
2017-11-04T02:17:01.565Z,20.00
2017-11-04T02:19:29.806Z,20.87
2017-11-04T02:21:58.090Z,19.77
2017-11-04T02:24:26.342Z,20.20
2017-11-04T02:26:54.612Z,18.90
2017-11-04T02:29:23.651Z,21.80
2017-11-04T02:31:51.933Z,19.37
2017-11-04T02:34:20.186Z,20.90
2017-11-04T02:36:48.461Z,19.10
2017-11-04T02:39:16.714Z,19.60
2017-11-04T02:41:44.981Z,20.87
2017-11-04T02:44:13.799Z,20.90
2017-11-04T02:46:42.832Z,21.60
2017-11-04T02:49:11.103Z,21.37
2017-11-04T02:51:39.374Z,21.50
2017-11-04T02:54:08.382Z,19.93
2017-11-04T02:56:36.679Z,19.10
2017-11-04T02:59:04.938Z,19.93
2017-11-04T03:01:33.207Z,19.30
2017-11-04T03:04:01.462Z,20.33
2017-11-04T03:06:29.747Z,20.00
2017-11-04T03:08:57.997Z,18.47
2017-11-04T03:11:26.262Z,19.13
2017-11-04T03:13:54.511Z,20.50
2017-11-04T03:16:23.548Z,20.00
2017-11-04T03:18:51.801Z,19.90
2017-11-04T03:21:20.087Z,19.63
2017-11-04T03:23:48.330Z,19.20
2017-11-04T03:26:17.393Z,20.50
2017-11-04T03:28:45.642Z,19.47
2017-11-04T03:31:13.948Z,20.13
2017-11-04T03:33:42.236Z,19.63
2017-11-04T03:36:10.515Z,20.70
2017-11-04T03:38:38.792Z,19.87
2017-11-04T03:41:07.062Z,19.33
2017-11-04T03:43:35.305Z,18.87
2017-11-04T03:46:03.609Z,19.30
2017-11-04T03:48:31.882Z,19.73
2017-11-04T03:51:00.926Z,18.90
2017-11-04T03:53:29.293Z,20.00
2017-11-04T03:55:57.889Z,21.80
2017-11-04T03:58:26.151Z,21.07
2017-11-04T04:00:54.410Z,19.57
2017-11-04T04:03:23.459Z,19.43
2017-11-04T04:05:51.718Z,18.10
2017-11-04T04:08:20.010Z,18.50
2017-11-04T04:10:48.252Z,19.00
2017-11-04T04:13:16.518Z,20.63
2017-11-04T04:15:45.542Z,18.40
2017-11-04T04:18:13.810Z,19.20
2017-11-04T04:20:42.827Z,19.83
2017-11-04T04:23:11.092Z,19.47
2017-11-04T04:25:39.350Z,19.90
2017-11-04T04:28:08.400Z,19.53
2017-11-04T04:30:36.947Z,18.40
2017-11-04T04:33:06.091Z,19.93
2017-11-04T04:35:34.350Z,17.83
2017-11-04T04:38:02.623Z,18.37
2017-11-04T04:40:30.876Z,19.60
2017-11-04T04:42:59.138Z,19.63
2017-11-04T04:45:27.391Z,18.80
2017-11-04T04:47:55.661Z,19.67
2017-11-04T04:50:23.918Z,18.20
2017-11-04T04:52:52.204Z,18.97
2017-11-04T04:55:20.453Z,19.10
2017-11-04T04:57:49.488Z,17.90
2017-11-04T05:00:17.737Z,19.90
2017-11-04T05:02:46.771Z,19.40
2017-11-04T05:05:15.058Z,20.20
2017-11-04T05:07:43.357Z,18.57
2017-11-04T05:10:11.598Z,19.87
2017-11-04T05:12:39.865Z,18.30
2017-11-04T05:15:08.885Z,19.07
2017-11-04T05:17:38.019Z,18.37
2017-11-04T05:20:06.256Z,19.10
2017-11-04T05:22:34.539Z,18.17
2017-11-04T05:25:03.551Z,19.80
2017-11-04T05:27:31.818Z,19.30
2017-11-04T05:30:00.833Z,18.20
2017-11-04T05:32:29.100Z,20.13
2017-11-04T05:34:57.694Z,18.80
2017-11-04T05:37:26.005Z,19.17
2017-11-04T05:39:54.255Z,18.30
2017-11-04T05:42:22.521Z,19.70
2017-11-04T05:44:51.544Z,18.93
2017-11-04T05:47:19.853Z,20.53
2017-11-04T05:49:48.095Z,17.40
2017-11-04T05:52:17.230Z,17.87
2017-11-04T05:54:45.506Z,18.30
2017-11-04T05:57:13.779Z,18.90
2017-11-04T05:59:42.043Z,19.57
2017-11-04T06:02:10.319Z,20.00
2017-11-04T06:04:38.570Z,20.20
2017-11-04T06:07:06.832Z,20.67
2017-11-04T06:09:35.086Z,22.13
2017-11-04T06:12:03.355Z,20.07
2017-11-04T06:14:31.600Z,22.70
2017-11-04T06:16:59.866Z,20.00
2017-11-04T06:19:28.116Z,21.30
2017-11-04T06:21:56.688Z,19.17
2017-11-04T06:24:25.000Z,19.50
2017-11-04T06:26:53.264Z,21.10
2017-11-04T06:29:21.523Z,19.40
2017-11-04T06:31:49.834Z,19.67
2017-11-04T06:34:18.089Z,21.17
2017-11-04T06:36:47.418Z,18.60
2017-11-04T06:39:15.665Z,18.63
2017-11-04T06:41:44.686Z,21.83
2017-11-04T06:44:12.982Z,20.63
2017-11-04T06:46:41.231Z,21.47
2017-11-04T06:49:09.526Z,23.87
2017-11-04T06:51:37.799Z,24.67
2017-11-04T06:54:06.846Z,21.37
2017-11-04T06:56:35.116Z,23.00
2017-11-04T06:59:03.388Z,18.80
2017-11-04T07:01:31.643Z,19.37
2017-11-04T07:03:59.935Z,21.43
2017-11-04T07:06:28.397Z,22.37
2017-11-04T07:08:57.287Z,23.70
2017-11-04T07:11:26.333Z,25.27
2017-11-04T07:13:54.591Z,22.90
2017-11-04T07:16:22.896Z,22.53
2017-11-04T07:18:51.268Z,20.13
2017-11-04T07:21:19.527Z,20.67
2017-11-04T07:23:47.803Z,20.50
2017-11-04T07:26:16.831Z,19.10
2017-11-04T07:28:45.113Z,19.97
2017-11-04T07:31:13.366Z,21.97
2017-11-04T07:33:41.636Z,20.90
2017-11-04T07:36:11.079Z,21.33
2017-11-04T07:38:39.342Z,22.80
2017-11-04T07:41:07.608Z,24.47
2017-11-04T07:43:36.650Z,22.83
2017-11-04T07:49:02.495Z,25.57
2017-11-04T07:51:30.753Z,25.07
2017-11-04T07:53:59.040Z,23.97
2017-11-04T07:56:27.287Z,25.80
2017-11-04T07:58:56.413Z,24.67
2017-11-04T08:01:24.656Z,24.83
2017-11-04T08:03:52.993Z,24.80
2017-11-04T08:06:21.413Z,25.20
2017-11-04T08:08:49.661Z,25.83
2017-11-04T08:11:17.943Z,25.50
2017-11-04T08:13:46.439Z,25.67
2017-11-04T08:16:14.703Z,23.50
2017-11-04T08:18:42.972Z,24.80
2017-11-04T08:21:11.274Z,26.87
2017-11-04T08:23:39.558Z,24.97
2017-11-04T08:26:07.805Z,25.63
2017-11-04T08:28:36.075Z,26.07
2017-11-04T08:31:04.388Z,25.80
2017-11-04T08:33:33.207Z,26.40
2017-11-04T08:36:01.591Z,27.40
2017-11-04T08:38:29.889Z,24.50
2017-11-04T08:40:58.147Z,27.03
2017-11-04T08:43:26.431Z,29.10
2017-11-04T08:45:54.654Z,28.03
2017-11-04T08:48:22.927Z,27.60
2017-11-04T08:50:52.268Z,27.90
2017-11-04T08:53:20.535Z,26.53
2017-11-04T08:55:48.792Z,26.87
2017-11-04T08:58:17.977Z,27.20
2017-11-04T09:00:46.203Z,28.30
2017-11-04T09:03:14.459Z,28.27
2017-11-04T09:05:43.494Z,27.57
2017-11-04T09:08:11.926Z,28.97
2017-11-04T09:10:40.304Z,28.43
2017-11-04T09:13:09.372Z,26.23
2017-11-04T09:15:37.655Z,28.03
2017-11-04T09:18:05.937Z,28.80
2017-11-04T09:20:34.228Z,29.23
2017-11-04T09:23:02.493Z,28.70
2017-11-04T09:25:30.768Z,28.87
2017-11-04T09:27:59.065Z,29.80
2017-11-04T09:30:27.579Z,28.10
2017-11-04T09:32:56.133Z,29.00
2017-11-04T09:35:24.431Z,29.77
2017-11-04T09:37:52.710Z,30.50
2017-11-04T09:40:20.974Z,31.33
2017-11-04T09:42:49.235Z,30.90
2017-11-04T09:45:17.518Z,29.50
2017-11-04T09:47:45.946Z,31.00
2017-11-04T09:50:14.531Z,31.30
2017-11-04T09:52:42.915Z,31.90
2017-11-04T09:55:12.341Z,30.10
2017-11-04T09:57:40.786Z,30.37
2017-11-04T10:00:09.397Z,34.67
2017-11-04T10:02:37.710Z,27.90
2017-11-04T10:05:05.997Z,31.80
2017-11-04T10:07:34.547Z,33.00
2017-11-04T10:10:03.597Z,33.40
2017-11-04T10:12:31.900Z,30.03
2017-11-04T10:15:00.153Z,32.57
2017-11-04T10:17:28.464Z,32.53
2017-11-04T10:19:56.742Z,31.80
2017-11-04T10:22:25.011Z,34.63
2017-11-04T10:24:53.273Z,35.07
2017-11-04T10:27:21.548Z,35.03
2017-11-04T10:29:49.804Z,36.53
2017-11-04T10:32:18.837Z,34.90
2017-11-04T10:34:47.091Z,33.40
2017-11-04T10:37:15.762Z,33.63
2017-11-04T10:39:44.007Z,34.40
2017-11-04T10:42:12.278Z,31.37
2017-11-04T10:44:40.536Z,33.93
2017-11-04T10:47:08.811Z,33.70
2017-11-04T10:49:38.090Z,34.03
2017-11-04T10:52:06.599Z,32.37
2017-11-04T10:54:34.977Z,33.80
2017-11-04T10:57:03.652Z,35.10
2017-11-04T10:59:32.943Z,34.43
2017-11-04T11:02:01.529Z,34.50
2017-11-04T11:04:29.937Z,35.90
2017-11-04T11:06:58.419Z,33.93
2017-11-04T11:09:26.796Z,34.90
2017-11-04T11:11:55.163Z,36.80
2017-11-04T11:14:23.435Z,37.27
2017-11-04T11:16:51.694Z,36.07
2017-11-04T11:19:19.969Z,34.60
2017-11-04T11:21:48.233Z,40.90
2017-11-04T11:24:17.267Z,40.00
2017-11-04T11:26:45.519Z,40.57
2017-11-04T11:29:14.556Z,37.43
2017-11-04T11:31:42.812Z,38.67
2017-11-04T11:34:11.080Z,40.03
2017-11-04T11:36:40.112Z,37.73
2017-11-04T11:39:08.490Z,38.93
2017-11-04T11:41:36.751Z,41.97
2017-11-04T11:44:05.020Z,38.13
2017-11-04T11:46:34.032Z,41.60
2017-11-04T11:49:02.306Z,39.47
2017-11-04T11:51:30.561Z,39.67
2017-11-04T11:53:58.839Z,40.03
2017-11-04T11:56:27.869Z,38.30
2017-11-04T11:58:56.180Z,41.30
2017-11-04T12:01:24.437Z,40.63
2017-11-04T12:03:52.718Z,38.13
2017-11-04T12:06:21.014Z,38.43
2017-11-04T12:08:49.299Z,39.33
2017-11-04T12:11:17.579Z,40.10
2017-11-04T12:13:45.838Z,38.50
2017-11-04T12:16:14.156Z,36.93
2017-11-04T12:18:42.420Z,37.27
2017-11-04T12:21:10.715Z,37.40
2017-11-04T12:23:38.981Z,37.70
2017-11-04T12:26:07.231Z,36.03
2017-11-04T12:28:36.276Z,41.57
2017-11-04T12:31:04.530Z,39.70
2017-11-04T12:33:32.833Z,43.57
2017-11-04T12:36:01.117Z,35.40
2017-11-04T12:38:29.391Z,39.27
2017-11-04T12:40:57.666Z,35.80
2017-11-04T12:43:25.940Z,37.53
2017-11-04T12:45:54.192Z,40.00
2017-11-04T12:48:23.237Z,40.90
2017-11-04T12:50:51.497Z,35.60
2017-11-04T12:53:19.791Z,38.33
2017-11-04T12:55:48.081Z,38.03
2017-11-04T12:58:16.327Z,36.73
2017-11-04T13:00:44.605Z,36.47
2017-11-04T13:03:12.857Z,40.57
2017-11-04T13:05:41.897Z,39.10
2017-11-04T13:08:10.147Z,37.40
2017-11-04T13:10:39.206Z,40.93
2017-11-04T13:13:07.450Z,37.80
2017-11-04T13:15:35.732Z,36.80
2017-11-04T13:18:03.994Z,37.03
2017-11-04T13:20:33.030Z,37.30
2017-11-04T13:23:01.282Z,36.60
2017-11-04T13:25:29.599Z,37.00
2017-11-04T13:27:57.851Z,38.53
2017-11-04T13:30:26.167Z,37.30
2017-11-04T13:32:54.457Z,37.60
2017-11-04T13:35:22.719Z,40.20
2017-11-04T13:37:51.021Z,35.47
2017-11-04T13:40:19.288Z,37.20
2017-11-04T13:42:47.566Z,38.80
2017-11-04T13:45:15.842Z,37.17
2017-11-04T13:47:44.099Z,37.27
2017-11-04T13:50:13.236Z,36.20
2017-11-04T13:52:41.486Z,39.53
2017-11-04T13:55:09.768Z,38.43
2017-11-04T13:57:38.385Z,35.73
2017-11-04T14:00:06.682Z,36.90
2017-11-04T14:02:34.948Z,37.67
2017-11-04T14:05:03.220Z,43.07
2017-11-04T14:07:31.516Z,38.17
2017-11-04T14:09:59.777Z,37.73
2017-11-04T14:12:28.078Z,36.70
2017-11-04T14:14:56.347Z,36.70
2017-11-04T14:17:24.620Z,34.50
2017-11-04T14:19:52.950Z,35.27
2017-11-04T14:22:21.188Z,36.10
2017-11-04T14:24:49.470Z,35.23
2017-11-04T14:27:17.743Z,35.40
2017-11-04T14:29:46.041Z,35.47
2017-11-04T14:32:14.307Z,34.20
2017-11-04T14:34:42.584Z,36.80
2017-11-04T14:37:10.834Z,37.17
2017-11-04T14:39:39.871Z,35.97
2017-11-04T14:42:08.146Z,34.70
2017-11-04T14:44:36.429Z,34.17
2017-11-04T14:47:04.760Z,36.87
2017-11-04T14:49:33.033Z,35.20
2017-11-04T14:52:01.413Z,35.13
2017-11-04T14:54:29.792Z,32.93
2017-11-04T14:56:58.076Z,35.13
2017-11-04T14:59:26.385Z,33.47
2017-11-04T15:01:55.433Z,31.70
2017-11-04T15:04:23.708Z,36.50
2017-11-04T15:06:51.980Z,34.47
2017-11-04T15:09:20.238Z,33.93
2017-11-04T15:11:48.507Z,35.03
2017-11-04T15:14:16.877Z,35.30
2017-11-04T15:16:45.138Z,34.17
2017-11-04T15:19:13.415Z,33.00
2017-11-04T15:21:41.672Z,34.53
2017-11-04T15:24:09.959Z,35.57
2017-11-04T15:26:38.233Z,36.30
2017-11-04T15:29:07.319Z,34.70
2017-11-04T15:31:36.358Z,37.00
2017-11-04T15:34:04.649Z,35.50
2017-11-04T15:36:32.904Z,39.07
2017-11-04T15:39:01.197Z,34.50
2017-11-04T15:41:29.586Z,35.33
2017-11-04T15:43:57.838Z,35.33
2017-11-04T15:46:26.166Z,34.00
2017-11-04T15:48:54.425Z,35.80
2017-11-04T15:51:22.690Z,36.23
2017-11-04T15:53:50.968Z,35.80
2017-11-04T15:56:19.236Z,35.87
2017-11-04T15:58:47.543Z,35.00
2017-11-04T16:01:15.839Z,34.17
2017-11-04T16:03:44.147Z,34.30
2017-11-04T16:06:12.401Z,35.20
2017-11-04T16:08:40.668Z,35.43
2017-11-04T16:11:08.944Z,35.37
2017-11-04T16:13:37.822Z,34.93
2017-11-04T16:16:06.134Z,34.03
2017-11-04T16:18:34.388Z,33.47
2017-11-04T16:21:02.713Z,33.97
2017-11-04T16:23:30.954Z,34.97
2017-11-04T16:25:59.227Z,35.03
2017-11-04T16:28:27.555Z,33.87
2017-11-04T16:30:55.821Z,34.30
2017-11-04T16:33:24.102Z,34.90
2017-11-04T16:35:52.380Z,36.63
2017-11-04T16:38:20.655Z,33.07
2017-11-04T16:40:48.919Z,35.63
2017-11-04T16:43:17.179Z,34.20
2017-11-04T16:45:46.223Z,34.97
2017-11-04T16:48:14.476Z,34.03
2017-11-04T16:50:42.757Z,35.13
2017-11-04T16:53:11.011Z,35.40
2017-11-04T16:55:40.057Z,35.77
2017-11-04T16:58:08.307Z,33.97
2017-11-04T17:00:37.338Z,35.33
2017-11-04T17:03:05.633Z,35.47
2017-11-04T17:05:33.899Z,34.10
2017-11-04T17:08:02.160Z,32.47
2017-11-04T17:10:30.436Z,34.73
2017-11-04T17:12:58.690Z,35.10
2017-11-04T17:15:27.767Z,34.37
2017-11-04T17:17:56.127Z,35.30
2017-11-04T17:20:24.399Z,35.87
2017-11-04T17:22:52.689Z,36.10
2017-11-04T17:25:20.968Z,36.20
2017-11-04T17:27:49.220Z,34.20
2017-11-04T17:30:17.506Z,35.10
2017-11-04T17:32:45.767Z,36.60
2017-11-04T17:35:14.824Z,36.47
2017-11-04T17:37:43.112Z,35.07
2017-11-04T17:40:11.395Z,33.87
2017-11-04T17:42:39.648Z,35.97
2017-11-04T17:45:07.936Z,33.80
2017-11-04T17:47:36.221Z,32.60
2017-11-04T17:50:04.508Z,32.30
2017-11-04T17:52:32.780Z,33.40
2017-11-04T17:55:01.068Z,34.27
2017-11-04T17:57:29.484Z,35.90
2017-11-04T17:59:57.834Z,40.65
2017-11-04T18:02:26.107Z,35.83
2017-11-04T18:04:54.379Z,36.17
2017-11-04T18:07:22.636Z,35.00
2017-11-04T18:09:51.691Z,34.50
2017-11-04T18:12:20.035Z,33.27
2017-11-04T18:14:49.068Z,35.03
2017-11-04T18:17:17.323Z,34.83
2017-11-04T18:19:45.603Z,32.43
2017-11-04T18:22:13.913Z,32.83
2017-11-04T18:24:42.189Z,32.23
2017-11-04T18:27:10.445Z,34.80
2017-11-04T18:29:38.718Z,34.80
2017-11-04T18:32:07.034Z,36.27
2017-11-04T18:34:35.401Z,36.57
2017-11-04T18:37:03.743Z,34.10
2017-11-04T18:39:32.105Z,33.07
2017-11-04T18:42:00.370Z,32.93
2017-11-04T18:44:28.626Z,32.90
2017-11-04T18:46:56.899Z,34.03
2017-11-04T18:49:25.169Z,35.33
2017-11-04T18:51:53.495Z,33.87
2017-11-04T18:54:21.761Z,36.40
2017-11-04T18:56:50.028Z,33.80
2017-11-04T18:59:18.298Z,33.13
2017-11-04T19:01:46.626Z,37.10
2017-11-04T19:04:14.903Z,37.23
2017-11-04T19:06:43.185Z,37.30
2017-11-04T19:09:11.458Z,36.73
2017-11-04T19:11:39.745Z,33.93
2017-11-04T19:14:08.008Z,35.17
2017-11-04T19:16:36.309Z,34.93
2017-11-04T19:19:04.579Z,35.23
2017-11-04T19:21:32.864Z,35.70
2017-11-04T19:24:01.121Z,31.77
2017-11-04T19:26:29.394Z,31.30
2017-11-04T19:28:57.696Z,33.67
2017-11-04T19:31:25.968Z,33.50
2017-11-04T19:33:54.259Z,31.67
2017-11-04T19:36:22.880Z,31.73
2017-11-04T19:38:51.914Z,31.60
2017-11-04T19:41:20.362Z,31.87
2017-11-04T19:43:48.846Z,28.90
2017-11-04T19:46:17.944Z,29.70
2017-11-04T19:48:46.299Z,28.00
2017-11-04T19:51:14.607Z,28.50
2017-11-04T19:53:42.893Z,27.37
2017-11-04T19:56:11.199Z,29.90
2017-11-04T19:58:40.237Z,28.67
2017-11-04T20:01:08.530Z,33.57
2017-11-04T20:03:36.802Z,28.67
2017-11-04T20:06:05.084Z,28.97
2017-11-04T20:08:33.406Z,28.63
2017-11-04T20:11:01.667Z,27.30
2017-11-04T20:13:30.034Z,27.03
2017-11-04T20:15:58.354Z,25.90
2017-11-04T20:18:26.728Z,25.97
2017-11-04T20:20:55.074Z,26.10
2017-11-04T20:23:23.987Z,27.40
2017-11-04T20:25:52.384Z,28.43
2017-11-04T20:28:20.872Z,28.67
2017-11-04T20:30:49.969Z,28.00
2017-11-04T20:33:18.261Z,27.30
2017-11-04T20:35:46.519Z,27.37
2017-11-04T20:38:14.814Z,26.10
2017-11-04T20:40:43.165Z,26.47
2017-11-04T20:43:11.432Z,24.27
2017-11-04T20:45:39.689Z,25.80
2017-11-04T20:48:07.995Z,24.07
2017-11-04T20:50:36.252Z,25.53
2017-11-04T20:53:06.309Z,27.20
2017-11-04T20:55:34.608Z,30.47
2017-11-04T20:58:02.984Z,26.50
2017-11-04T21:00:31.256Z,27.40
2017-11-04T21:02:59.536Z,23.97
2017-11-04T21:05:27.801Z,27.67
2017-11-04T21:07:56.103Z,26.40
2017-11-04T21:10:24.376Z,27.50
2017-11-04T21:12:52.635Z,28.63
2017-11-04T21:15:20.911Z,25.93
2017-11-04T21:17:49.195Z,26.50
2017-11-04T21:20:17.503Z,25.97
2017-11-04T21:22:45.765Z,24.97
2017-11-04T21:25:14.063Z,24.20
2017-11-04T21:27:42.319Z,26.00
2017-11-04T21:30:11.968Z,24.23
2017-11-04T21:32:40.223Z,23.20
2017-11-04T21:35:08.491Z,24.50
2017-11-04T21:37:36.753Z,22.30
2017-11-04T21:40:05.793Z,25.83
2017-11-04T21:42:34.175Z,26.00
2017-11-04T21:45:02.477Z,26.73
2017-11-04T21:47:30.724Z,26.00
2017-11-04T21:49:59.497Z,23.17
2017-11-04T21:52:28.162Z,25.13
2017-11-04T21:54:58.038Z,22.47
2017-11-04T21:57:26.771Z,22.90
2017-11-04T21:59:55.123Z,23.27
2017-11-04T22:02:23.383Z,23.70
2017-11-04T22:04:51.641Z,24.03
2017-11-04T22:07:20.789Z,23.43
2017-11-04T22:09:49.058Z,23.70
2017-11-04T22:12:17.351Z,22.57
2017-11-04T22:14:45.639Z,23.63
2017-11-04T22:17:14.016Z,23.50
2017-11-04T22:19:42.274Z,23.33
2017-11-04T22:22:10.579Z,21.57
2017-11-04T22:24:38.831Z,25.07
2017-11-04T22:27:07.100Z,25.13
2017-11-04T22:29:36.123Z,23.00
2017-11-04T22:32:04.402Z,25.07
2017-11-04T22:34:32.701Z,27.07
2017-11-04T22:37:00.966Z,26.83
2017-11-04T22:39:29.266Z,23.63
2017-11-04T22:41:57.639Z,23.20
2017-11-04T22:44:25.922Z,25.23
2017-11-04T22:46:54.223Z,25.83
2017-11-04T22:49:22.522Z,24.83
2017-11-04T22:51:50.810Z,25.23
2017-11-04T22:54:19.157Z,24.60
2017-11-04T22:56:47.451Z,24.73
2017-11-04T22:59:15.733Z,24.60
2017-11-04T23:01:44.033Z,24.23
2017-11-04T23:04:12.304Z,24.70
2017-11-04T23:06:40.681Z,25.17
2017-11-04T23:09:08.959Z,23.50
2017-11-04T23:11:37.244Z,25.93
2017-11-04T23:14:07.038Z,25.00
2017-11-04T23:16:35.330Z,26.00
2017-11-04T23:19:03.620Z,28.33
2017-11-04T23:21:31.908Z,29.20
2017-11-04T23:24:00.173Z,27.20
2017-11-04T23:26:29.225Z,27.87
2017-11-04T23:28:57.605Z,27.50
2017-11-04T23:31:25.903Z,27.83
2017-11-04T23:33:54.178Z,26.10
2017-11-04T23:36:22.479Z,28.00
2017-11-04T23:38:50.757Z,26.47
2017-11-04T23:41:19.039Z,29.90
2017-11-04T23:43:47.321Z,27.50
2017-11-04T23:46:15.619Z,27.90
2017-11-04T23:48:44.653Z,26.63
2017-11-04T23:51:12.940Z,27.80
2017-11-04T23:53:41.218Z,28.63
2017-11-04T23:56:09.493Z,27.40
2017-11-04T23:58:37.783Z,25.50
